Time;durP1;ratioP1;P1;durP2;ratioP2;P2;SDS_P1;SDS_P2;PMS_P1;PMS_P2;Temp;Humidity;BMP_temperature;BMP_pressure;BME280_temperature;BME280_humidity;BME280_pressure;Samples;Min_cycle;Max_cycle;Signal;HPM_P1;HPM_P2
2023/06/10 00:00:14;;;;;;;5.93;3.53;;;;;;;23.14;70.78;99771.88;5091619;28;20048;-66
2023/06/10 00:02:43;;;;;;;4.87;3.10;;;;;;;23.13;70.65;99767.47;5091674;28;20052;-66
2023/06/10 00:05:12;;;;;;;5.72;3.08;;;;;;;23.11;70.69;99769.53;5091592;28;20043;-66
2023/06/10 00:07:41;;;;;;;4.53;3.25;;;;;;;23.10;70.74;99770.56;5091523;28;20051;-66
2023/06/10 00:10:10;;;;;;;6.85;3.70;;;;;;;23.08;70.78;99759.88;5091540;28;20113;-66
2023/06/10 00:12:40;;;;;;;4.65;3.08;;;;;;;23.08;70.49;99753.59;5091738;28;20130;-66
2023/06/10 00:15:09;;;;;;;7.90;3.60;;;;;;;23.06;70.64;99753.75;5091476;28;20188;-66
2023/06/10 00:17:40;;;;;;;5.72;3.47;;;;;;;23.07;70.73;99760.06;5091323;28;20484;-66
2023/06/10 00:20:11;;;;;;;5.30;3.10;;;;;;;23.05;70.81;99751.22;5091601;28;20044;-66
2023/06/10 00:22:41;;;;;;;4.65;3.25;;;;;;;23.04;70.66;99755.81;5091626;28;20048;-66
2023/06/10 00:25:10;;;;;;;4.80;3.40;;;;;;;23.03;70.61;99754.13;5091473;28;20048;-66
2023/06/10 00:27:39;;;;;;;6.10;3.13;;;;;;;23.02;70.68;99752.44;5091353;28;20139;-66
2023/06/10 00:30:09;;;;;;;4.70;3.40;;;;;;;23.01;70.50;99753.47;5089478;28;20075;-66
2023/06/10 00:32:38;;;;;;;4.95;3.17;;;;;;;23.01;70.63;99755.34;5091563;28;20052;-66
2023/06/10 00:35:08;;;;;;;9.73;3.40;;;;;;;23.00;70.54;99756.41;5091352;28;20082;-66
2023/06/10 00:37:39;;;;;;;5.13;3.47;;;;;;;22.99;70.81;99760.16;5091412;28;20048;-66
2023/06/10 00:40:09;;;;;;;5.80;3.33;;;;;;;22.98;70.52;99766.63;5091391;28;20044;-66
2023/06/10 00:42:37;;;;;;;4.78;3.10;;;;;;;22.98;70.62;99769.34;5091217;28;20473;-65
2023/06/10 00:45:08;;;;;;;5.47;3.35;;;;;;;22.97;70.63;99764.91;5091468;28;20055;-66
2023/06/10 00:47:39;;;;;;;5.20;3.60;;;;;;;22.96;70.65;99763.22;5091220;28;20066;-65
2023/06/10 00:50:08;;;;;;;7.18;3.50;;;;;;;22.93;70.47;99761.72;5091366;28;20048;-66
2023/06/10 00:52:36;;;;;;;5.72;3.60;;;;;;;22.93;70.67;99766.31;5091189;28;20404;-66
2023/06/10 00:55:07;;;;;;;4.97;3.28;;;;;;;22.93;70.70;99766.31;5091203;28;20102;-66
2023/06/10 00:57:37;;;;;;;4.97;3.38;;;;;;;22.91;70.72;99774.66;5091080;28;20090;-66
2023/06/10 01:00:08;;;;;;;5.90;3.60;;;;;;;22.89;70.78;99771.28;5091567;28;20048;-66
2023/06/10 01:02:37;;;;;;;6.32;3.17;;;;;;;22.88;70.45;99766.88;5091549;28;20117;-66
2023/06/10 01:05:07;;;;;;;6.35;3.30;;;;;;;22.89;70.64;99774.00;5091015;28;20044;-66
2023/06/10 01:07:42;;;;;;;5.63;3.08;;;;;;;22.87;70.53;99767.03;5090788;28;20048;-66
2023/06/10 01:10:17;;;;;;;4.32;3.20;;;;;;;22.85;70.49;99762.63;5091250;28;20134;-66
2023/06/10 01:12:51;;;;;;;6.82;3.33;;;;;;;22.85;70.47;99762.63;5090811;28;20094;-66
2023/06/10 01:15:21;;;;;;;7.32;3.30;;;;;;;22.85;70.35;99770.78;5090979;28;20097;-66
2023/06/10 01:17:57;;;;;;;4.57;3.50;;;;;;;22.84;70.28;99768.25;5090893;28;20044;-67
2023/06/10 01:20:29;;;;;;;6.15;3.60;;;;;;;22.82;70.31;99765.69;5090850;28;20044;-67
2023/06/10 01:22:59;;;;;;;6.03;3.35;;;;;;;22.81;70.31;99772.16;5091047;28;20083;-66
2023/06/10 01:25:29;;;;;;;4.88;3.10;;;;;;;22.79;70.36;99768.78;5091040;28;20048;-66
2023/06/10 01:28:04;;;;;;;5.28;3.25;;;;;;;22.79;70.24;99760.63;5090785;28;20059;-66
2023/06/10 01:30:39;;;;;;;5.70;3.65;;;;;;;22.78;70.28;99763.53;5090758;28;20117;-66
2023/06/10 01:33:11;;;;;;;5.53;3.28;;;;;;;22.77;70.18;99769.97;5090980;28;20040;-66
2023/06/10 01:35:41;;;;;;;5.75;3.20;;;;;;;22.75;70.22;99772.88;5091015;28;20044;-66
2023/06/10 01:38:11;;;;;;;5.55;3.10;;;;;;;22.75;70.24;99769.31;5091207;28;20044;-66
2023/06/10 01:40:41;;;;;;;6.28;3.50;;;;;;;22.75;70.24;99769.31;5091544;28;20044;-66
2023/06/10 01:43:09;;;;;;;4.78;3.03;;;;;;;22.72;70.17;99773.25;5094304;28;20044;-66
2023/06/10 01:45:37;;;;;;;6.47;3.45;;;;;;;22.72;70.19;99765.09;5094174;28;20048;-66
2023/06/10 01:48:05;;;;;;;5.13;3.47;;;;;;;22.71;70.24;99768.00;5094462;28;20134;-66
2023/06/10 01:50:34;;;;;;;5.85;3.25;;;;;;;22.68;70.19;99766.50;5094204;28;20058;-66
2023/06/10 01:53:02;;;;;;;5.65;3.63;;;;;;;22.69;70.15;99764.63;5094231;28;20105;-66
2023/06/10 01:55:32;;;;;;;5.78;3.25;;;;;;;22.66;70.13;99771.25;5094117;28;20059;-66
2023/06/10 01:58:00;;;;;;;8.50;3.47;;;;;;;22.66;70.07;99764.97;5094173;28;20060;-66
2023/06/10 02:00:28;;;;;;;4.72;3.15;;;;;;;22.65;70.13;99769.56;5094148;28;20048;-66
2023/06/10 02:02:56;;;;;;;5.30;3.40;;;;;;;22.63;70.32;99760.75;5093904;28;20097;-66
2023/06/10 02:05:25;;;;;;;6.22;3.25;;;;;;;22.63;70.17;99765.34;5094017;28;20048;-66
2023/06/10 02:07:53;;;;;;;5.57;3.58;;;;;;;22.62;70.16;99764.50;5093756;28;20504;-66
2023/06/10 02:10:22;;;;;;;6.43;3.53;;;;;;;22.62;70.13;99769.09;5093813;28;20054;-66
2023/06/10 02:12:51;;;;;;;5.32;3.47;;;;;;;22.60;70.23;99766.56;5093894;28;20048;-66
2023/06/10 02:15:19;;;;;;;5.45;3.40;;;;;;;22.60;70.17;99766.56;5093862;28;20040;-66
2023/06/10 02:17:48;;;;;;;4.72;3.45;;;;;;;22.58;70.30;99765.88;5093475;28;20048;-66
2023/06/10 02:20:17;;;;;;;5.40;3.58;;;;;;;22.57;70.25;99775.91;5093712;28;20044;-66
2023/06/10 02:22:45;;;;;;;6.72;3.47;;;;;;;22.56;70.15;99776.91;5093636;28;20084;-65
2023/06/10 02:25:13;;;;;;;6.25;3.33;;;;;;;22.55;69.97;99774.38;5093410;28;20044;-66
2023/06/10 02:27:41;;;;;;;4.97;3.42;;;;;;;22.54;70.16;99778.13;5093573;28;20082;-66
2023/06/10 02:30:12;;;;;;;5.40;3.35;;;;;;;22.52;70.25;99769.31;5093593;28;20047;-66
2023/06/10 02:32:40;;;;;;;5.00;3.38;;;;;;;22.52;70.27;99769.31;5093301;28;20055;-66
2023/06/10 02:35:12;;;;;;;7.13;3.50;;;;;;;22.51;70.22;99767.63;5093433;28;20047;-65
2023/06/10 02:37:44;;;;;;;6.15;3.28;;;;;;;22.51;70.22;99767.63;5093073;28;20476;-66
2023/06/10 02:40:12;;;;;;;5.63;3.78;;;;;;;22.49;70.04;99764.25;5093348;28;20048;-66
2023/06/10 02:42:40;;;;;;;6.13;3.83;;;;;;;22.49;70.15;99766.97;5093290;28;20051;-66
2023/06/10 02:45:11;;;;;;;8.13;3.40;;;;;;;22.48;70.06;99768.81;5093242;28;20048;-66
2023/06/10 02:47:39;;;;;;;4.30;3.30;;;;;;;22.47;70.25;99777.16;5093138;28;20048;-65
2023/06/10 02:50:08;;;;;;;5.38;3.63;;;;;;;22.46;70.30;99772.75;5093206;28;20453;-66
2023/06/10 02:52:36;;;;;;;5.00;3.40;;;;;;;22.45;70.24;99773.78;5092907;28;20101;-65
2023/06/10 02:55:06;;;;;;;6.65;3.75;;;;;;;22.44;70.33;99774.81;5093178;28;20568;-66
2023/06/10 02:57:34;;;;;;;5.32;3.55;;;;;;;22.43;70.29;99767.69;5092790;28;20575;-65
2023/06/10 03:00:09;;;;;;;6.88;3.90;;;;;;;22.43;70.34;99784.00;5092860;28;20102;-65
2023/06/10 03:02:38;;;;;;;6.78;3.55;;;;;;;22.41;70.33;99777.91;5092811;28;20477;-65
2023/06/10 03:05:09;;;;;;;4.55;3.28;;;;;;;22.41;70.25;99786.06;5092676;28;20048;-65
2023/06/10 03:07:39;;;;;;;5.20;3.40;;;;;;;22.40;70.48;99778.94;5092658;28;20040;-65
2023/06/10 03:10:08;;;;;;;5.22;3.38;;;;;;;22.39;70.50;99786.25;5092727;28;20048;-65
2023/06/10 03:12:36;;;;;;;5.85;3.42;;;;;;;22.38;70.41;99783.69;5092777;28;20075;-66
2023/06/10 03:15:05;;;;;;;4.97;3.50;;;;;;;22.37;70.35;99790.97;5092476;28;20046;-65
2023/06/10 03:17:38;;;;;;;6.15;3.55;;;;;;;22.38;70.35;99789.09;5092300;28;20390;-65
2023/06/10 03:20:10;;;;;;;5.22;3.45;;;;;;;22.37;70.44;99790.13;5092706;28;20142;-65
2023/06/10 03:22:38;;;;;;;4.53;3.22;;;;;;;22.36;70.43;99791.16;5092643;28;20070;-65
2023/06/10 03:25:13;;;;;;;7.07;3.88;;;;;;;22.37;70.40;99801.00;5092443;28;20048;-66
2023/06/10 03:27:43;;;;;;;5.47;3.22;;;;;;;22.36;70.47;99796.59;5092316;28;20047;-66
2023/06/10 03:30:13;;;;;;;6.35;3.30;;;;;;;22.36;70.60;99796.59;5092136;28;20150;-66
2023/06/10 03:32:43;;;;;;;7.05;3.60;;;;;;;22.35;70.70;99794.91;5092466;28;20105;-67
2023/06/10 03:35:11;;;;;;;4.70;3.00;;;;;;;22.35;70.89;99794.91;5092335;28;20097;-67
2023/06/10 03:37:41;;;;;;;9.15;3.47;;;;;;;22.34;70.79;99804.94;5092046;28;20558;-66
2023/06/10 03:40:10;;;;;;;6.63;3.35;;;;;;;22.34;70.88;99804.94;5092121;28;20476;-66
2023/06/10 03:42:38;;;;;;;5.18;3.47;;;;;;;22.34;71.05;99799.50;5092061;28;20507;-67
2023/06/10 03:45:07;;;;;;;5.25;3.00;;;;;;;22.34;71.06;99793.22;5092304;28;20044;-66
2023/06/10 03:47:36;;;;;;;5.78;3.28;;;;;;;22.33;70.92;99803.25;5092134;28;20040;-66
2023/06/10 03:50:07;;;;;;;4.20;3.08;;;;;;;22.33;71.09;99795.09;5091911;28;20048;-66
2023/06/10 03:52:36;;;;;;;5.80;3.20;;;;;;;22.34;71.03;99790.50;5091795;28;20566;-66
2023/06/10 03:55:05;;;;;;;10.00;3.60;;;;;;;22.32;71.13;99789.84;5091726;28;20416;-66
2023/06/10 03:57:34;;;;;;;7.82;3.40;;;;;;;22.33;71.02;99786.94;5091933;28;20048;-67
2023/06/10 04:00:08;;;;;;;5.50;3.20;;;;;;;22.32;71.13;99785.25;5091957;28;20055;-66
2023/06/10 04:02:36;;;;;;;4.18;2.88;;;;;;;22.33;71.13;99786.09;5091728;28;20040;-66
2023/06/10 04:05:07;;;;;;;5.13;3.30;;;;;;;22.34;71.30;99790.50;5091217;28;20055;-66
2023/06/10 04:07:35;;;;;;;4.82;3.25;;;;;;;22.33;71.07;99775.22;5091370;28;20050;-66
2023/06/10 04:10:04;;;;;;;6.28;3.20;;;;;;;22.32;71.23;99787.13;5091655;28;20055;-66
2023/06/10 04:12:33;;;;;;;5.07;3.33;;;;;;;22.33;71.14;99783.38;5091758;28;20051;-66
2023/06/10 04:15:01;;;;;;;5.18;3.05;;;;;;;22.31;71.26;99780.84;5091543;28;20050;-67
2023/06/10 04:17:30;;;;;;;5.38;3.50;;;;;;;22.33;71.23;99791.53;5091577;28;20090;-66
2023/06/10 04:19:58;;;;;;;4.28;3.10;;;;;;;22.31;71.25;99788.16;5091314;28;20044;-66
2023/06/10 04:22:28;;;;;;;4.95;3.30;;;;;;;22.33;71.30;99791.53;5091416;28;20469;-67
2023/06/10 04:24:56;;;;;;;4.68;2.95;;;;;;;22.31;71.26;99789.00;5091673;28;20139;-66
2023/06/10 04:27:24;;;;;;;4.70;2.90;;;;;;;22.32;71.31;99795.28;5091402;28;20048;-66
2023/06/10 04:29:52;;;;;;;4.40;2.88;;;;;;;22.32;71.31;99798.00;5091360;28;20554;-66
2023/06/10 04:32:21;;;;;;;6.45;3.10;;;;;;;22.32;71.34;99800.72;5091361;28;20044;-66
2023/06/10 04:34:50;;;;;;;5.25;3.10;;;;;;;22.31;71.41;99793.59;5091286;28;20086;-66
2023/06/10 04:37:18;;;;;;;4.85;2.92;;;;;;;22.31;71.29;99794.44;5091405;28;20048;-66
2023/06/10 04:39:47;;;;;;;6.18;3.35;;;;;;;22.31;71.32;99796.31;5091370;28;20048;-66
2023/06/10 04:42:16;;;;;;;6.55;3.17;;;;;;;22.30;71.37;99791.91;5091213;28;20080;-65
2023/06/10 04:44:44;;;;;;;3.90;2.80;;;;;;;22.30;71.40;99792.75;5091265;28;20467;-64
2023/06/10 04:47:12;;;;;;;5.93;3.42;;;;;;;22.30;71.33;99795.47;5091109;28;20093;-66
2023/06/10 04:49:40;;;;;;;4.20;2.83;;;;;;;22.31;71.17;99793.59;5091008;28;20051;-66
2023/06/10 04:52:08;;;;;;;5.63;2.90;;;;;;;22.29;71.36;99796.47;5091569;28;20105;-65
2023/06/10 04:54:36;;;;;;;4.90;2.88;;;;;;;22.30;71.34;99789.19;5091396;28;20116;-66
2023/06/10 04:57:08;;;;;;;5.25;3.03;;;;;;;22.28;71.28;99792.91;5091023;28;20050;-66
2023/06/10 04:59:37;;;;;;;5.80;2.95;;;;;;;22.27;71.41;99788.50;5091287;28;20412;-67
2023/06/10 05:02:06;;;;;;;5.25;2.88;;;;;;;22.27;71.24;99783.06;5090958;28;20409;-67
2023/06/10 05:04:34;;;;;;;5.25;2.90;;;;;;;22.26;71.23;99781.38;5091260;28;20048;-66
2023/06/10 05:07:02;;;;;;;4.80;3.00;;;;;;;22.26;71.38;99783.25;5091113;28;20087;-66
2023/06/10 05:09:31;;;;;;;4.85;3.10;;;;;;;22.25;71.35;99779.69;5090772;28;20059;-66
2023/06/10 05:11:59;;;;;;;4.90;3.10;;;;;;;22.26;71.44;99792.25;5091173;28;20056;-66
2023/06/10 05:14:32;;;;;;;6.82;3.00;;;;;;;22.25;71.38;99787.84;5090298;28;20051;-66
2023/06/10 05:17:00;;;;;;;5.35;2.67;;;;;;;22.25;71.30;99792.41;5095010;28;20043;-66
2023/06/10 05:19:29;;;;;;;4.60;2.85;;;;;;;22.24;71.16;99788.84;5094854;28;20145;-66
2023/06/10 05:21:57;;;;;;;4.00;2.40;;;;;;;22.25;71.38;99792.41;5094659;28;20498;-66
2023/06/10 05:24:28;;;;;;;4.47;2.60;;;;;;;22.24;71.40;99797.00;5094737;28;20051;-67
2023/06/10 05:26:56;;;;;;;4.63;2.72;;;;;;;22.24;71.29;99796.16;5094533;28;20048;-66
2023/06/10 05:29:24;;;;;;;5.65;2.70;;;;;;;22.23;71.36;99798.03;5094648;28;20393;-66
2023/06/10 05:31:56;;;;;;;5.22;2.70;;;;;;;22.23;71.42;99798.03;5094782;28;20056;-66
2023/06/10 05:34:24;;;;;;;3.78;2.25;;;;;;;22.25;71.20;99795.97;5094635;28;20447;-66
2023/06/10 05:36:53;;;;;;;6.15;2.58;;;;;;;22.26;71.24;99808.53;5094581;28;20087;-66
2023/06/10 05:39:21;;;;;;;3.53;2.20;;;;;;;22.27;71.31;99795.78;5094400;28;20048;-66
2023/06/10 05:41:49;;;;;;;5.60;2.65;;;;;;;22.26;71.06;99808.53;5094288;28;20135;-66
2023/06/10 05:44:17;;;;;;;6.65;2.90;;;;;;;22.26;71.22;99813.97;5094439;28;20048;-66
2023/06/10 05:46:45;;;;;;;4.75;2.85;;;;;;;22.26;71.08;99813.97;5094473;28;20083;-66
2023/06/10 05:49:14;;;;;;;4.20;2.60;;;;;;;22.26;71.02;99811.25;5094281;28;20131;-66
2023/06/10 05:51:43;;;;;;;4.18;2.58;;;;;;;22.27;71.35;99815.66;5094051;28;20063;-66
2023/06/10 05:54:11;;;;;;;4.90;2.60;;;;;;;22.26;71.14;99819.41;5094214;28;20115;-66
2023/06/10 05:56:39;;;;;;;4.35;2.50;;;;;;;22.27;71.52;99806.66;5094449;28;20044;-66
2023/06/10 05:59:07;;;;;;;3.78;2.45;;;;;;;22.27;71.43;99809.38;5093941;28;20044;-66
2023/06/10 06:01:35;;;;;;;6.40;2.72;;;;;;;22.27;71.34;99804.78;5093941;28;20085;-66
2023/06/10 06:04:04;;;;;;;5.32;2.53;;;;;;;22.28;71.57;99811.91;5093732;28;20048;-65
2023/06/10 06:06:33;;;;;;;9.05;2.90;;;;;;;22.28;71.13;99811.91;5093835;28;20132;-66
2023/06/10 06:09:02;;;;;;;5.50;2.90;;;;;;;22.30;71.21;99808.19;5093547;28;20131;-66
2023/06/10 06:11:30;;;;;;;4.78;2.58;;;;;;;22.30;71.24;99802.78;5093848;28;20051;-66
2023/06/10 06:13:58;;;;;;;5.30;2.92;;;;;;;22.29;71.23;99807.31;5093882;28;20044;-66
2023/06/10 06:16:27;;;;;;;3.38;2.45;;;;;;;22.31;71.36;99809.88;5093870;28;20048;-66
2023/06/10 06:18:55;;;;;;;4.00;2.50;;;;;;;22.31;71.29;99818.03;5093469;28;20048;-65
2023/06/10 06:21:23;;;;;;;5.10;2.50;;;;;;;22.32;71.26;99817.00;5093610;28;20052;-65
2023/06/10 06:23:53;;;;;;;4.07;2.67;;;;;;;22.31;71.11;99812.59;5093660;28;20067;-66
2023/06/10 06:26:21;;;;;;;4.63;2.45;;;;;;;22.32;71.37;99811.56;5093027;28;20097;-66
2023/06/10 06:28:49;;;;;;;4.55;3.05;;;;;;;22.32;71.29;99811.56;5093478;28;20044;-66
2023/06/10 06:31:17;;;;;;;7.78;2.97;;;;;;;22.33;71.39;99818.69;5093433;28;20537;-66
2023/06/10 06:33:45;;;;;;;3.80;2.53;;;;;;;22.32;71.39;99817.00;5093695;28;20044;-66
2023/06/10 06:36:14;;;;;;;5.55;2.53;;;;;;;22.34;71.34;99825.81;5093262;28;20515;-66
2023/06/10 06:38:42;;;;;;;4.25;2.78;;;;;;;22.33;71.68;99824.97;5093203;28;20044;-65
2023/06/10 06:41:11;;;;;;;6.20;3.10;;;;;;;22.34;71.46;99823.09;5093394;28;20105;-66
2023/06/10 06:43:40;;;;;;;6.38;3.20;;;;;;;22.33;71.52;99824.13;5093346;28;20048;-65
2023/06/10 06:46:08;;;;;;;5.90;2.92;;;;;;;22.34;71.70;99825.81;5093102;28;20501;-65
2023/06/10 06:48:36;;;;;;;6.32;2.83;;;;;;;22.35;71.46;99832.94;5092540;28;20076;-65
2023/06/10 06:51:05;;;;;;;5.18;3.00;;;;;;;22.35;71.58;99831.06;5092834;28;20108;-65
2023/06/10 06:53:33;;;;;;;4.65;2.72;;;;;;;22.36;71.64;99829.19;5092894;28;20048;-66
2023/06/10 06:56:01;;;;;;;5.75;2.78;;;;;;;22.36;71.53;99829.19;5092902;28;20097;-66
2023/06/10 06:58:30;;;;;;;4.07;2.70;;;;;;;22.37;71.48;99836.31;5092614;28;20039;-66
2023/06/10 07:00:59;;;;;;;5.00;2.53;;;;;;;22.36;71.45;99835.47;5092807;28;20051;-66
2023/06/10 07:03:27;;;;;;;4.30;2.92;;;;;;;22.37;71.69;99826.31;5092402;28;20143;-66
2023/06/10 07:05:55;;;;;;;4.43;2.78;;;;;;;22.38;71.53;99838.00;5092547;28;20044;-66
2023/06/10 07:08:23;;;;;;;3.95;2.72;;;;;;;22.39;71.52;99831.56;5092412;28;20083;-66
2023/06/10 07:10:51;;;;;;;5.05;2.85;;;;;;;22.41;71.60;99834.97;5092530;28;20044;-65
2023/06/10 07:13:20;;;;;;;5.03;3.05;;;;;;;22.41;71.51;99827.66;5092442;28;20160;-65
2023/06/10 07:15:50;;;;;;;4.13;2.80;;;;;;;22.43;71.53;99827.47;5092548;28;20407;-65
2023/06/10 07:18:18;;;;;;;5.90;2.90;;;;;;;22.43;71.54;99830.19;5092620;28;20393;-68
2023/06/10 07:20:46;;;;;;;3.83;2.83;;;;;;;22.45;71.63;99830.84;5092785;28;20044;-68
2023/06/10 07:23:14;;;;;;;5.43;3.05;;;;;;;22.46;71.73;99836.09;5092439;28;20050;-66
2023/06/10 07:25:42;;;;;;;4.28;3.05;;;;;;;22.47;71.68;99836.94;5093036;28;20120;-61
2023/06/10 07:28:11;;;;;;;5.93;3.00;;;;;;;22.47;71.61;99839.66;5092299;28;20508;-64
2023/06/10 07:30:39;;;;;;;3.60;2.75;;;;;;;22.49;71.72;99837.63;5092356;28;20477;-64
2023/06/10 07:33:10;;;;;;;5.00;3.03;;;;;;;22.49;71.64;99838.47;5092517;28;20135;-63
2023/06/10 07:35:38;;;;;;;5.50;2.97;;;;;;;22.51;71.55;99838.28;5092453;28;20460;-64
2023/06/10 07:38:06;;;;;;;4.45;3.20;;;;;;;22.53;71.70;99836.25;5091204;28;20052;-64
2023/06/10 07:40:34;;;;;;;4.53;2.90;;;;;;;22.53;71.59;99836.25;5092074;28;20040;-64
2023/06/10 07:43:03;;;;;;;4.47;2.65;;;;;;;22.55;71.53;99834.19;5091936;28;20048;-63
2023/06/10 07:45:31;;;;;;;4.05;2.90;;;;;;;22.57;71.77;99837.56;5092196;28;20050;-63
2023/06/10 07:47:59;;;;;;;4.20;3.17;;;;;;;22.57;71.69;99838.41;5092096;28;20047;-64
2023/06/10 07:50:28;;;;;;;4.30;3.05;;;;;;;22.60;71.50;99837.22;5092045;28;20048;-64
2023/06/10 07:52:57;;;;;;;4.00;2.95;;;;;;;22.62;71.69;99839.75;5091977;28;20044;-64
2023/06/10 07:55:25;;;;;;;4.78;2.90;;;;;;;22.63;71.49;99839.56;5091800;28;20062;-64
2023/06/10 07:57:54;;;;;;;4.50;2.92;;;;;;;22.63;71.62;99836.84;5092238;28;20059;-65
2023/06/10 08:00:22;;;;;;;4.20;2.97;;;;;;;22.66;71.55;99841.06;5092127;28;20481;-65
2023/06/10 08:02:51;;;;;;;4.10;2.92;;;;;;;22.66;71.50;99839.19;5092243;28;20386;-63
2023/06/10 08:05:20;;;;;;;3.67;2.60;;;;;;;22.67;71.19;99838.16;5091772;28;20051;-63
2023/06/10 08:07:50;;;;;;;4.22;3.00;;;;;;;22.71;71.33;99844.13;5091465;28;20157;-63
2023/06/10 08:10:18;;;;;;;6.68;3.08;;;;;;;22.72;71.30;99845.81;5089226;28;20054;-62
2023/06/10 08:12:46;;;;;;;5.53;3.05;;;;;;;22.73;71.12;99840.19;5091324;28;20052;-65
2023/06/10 08:15:14;;;;;;;4.95;3.05;;;;;;;22.74;71.16;99844.59;5091829;28;20061;-64
2023/06/10 08:17:42;;;;;;;4.63;3.20;;;;;;;22.76;71.12;99831.66;5091797;28;20048;-65
2023/06/10 08:20:11;;;;;;;4.63;3.05;;;;;;;22.76;70.93;99831.66;5091326;28;20067;-66
2023/06/10 08:22:39;;;;;;;4.78;3.30;;;;;;;22.78;70.91;99824.19;5091457;28;20059;-68
2023/06/10 08:25:09;;;;;;;4.45;3.17;;;;;;;22.79;70.99;99834.03;5091403;28;20048;-64
2023/06/10 08:27:38;;;;;;;6.18;3.50;;;;;;;22.81;71.09;99826.53;5091617;28;20048;-67
2023/06/10 08:30:08;;;;;;;4.97;3.42;;;;;;;22.82;71.03;99824.66;5091610;28;20059;-69
2023/06/10 08:32:36;;;;;;;5.28;3.10;;;;;;;22.83;70.96;99827.19;5091240;28;20052;-67
2023/06/10 08:35:05;;;;;;;5.00;3.33;;;;;;;22.84;70.80;99828.91;5090648;28;20048;-66
2023/06/10 08:37:33;;;;;;;5.15;3.35;;;;;;;22.87;70.79;99818.69;5089981;28;20483;-67
2023/06/10 08:40:02;;;;;;;6.20;4.20;;;;;;;22.86;70.84;99820.56;5091417;28;20056;-67
2023/06/10 08:42:38;;;;;;;5.55;3.58;;;;;;;22.87;70.96;99805.94;5091101;28;20044;-67
2023/06/10 08:45:13;;;;;;;5.57;3.70;;;;;;;22.89;70.83;99809.34;5091395;28;20044;-66
2023/06/10 08:47:45;;;;;;;6.15;3.85;;;;;;;22.90;70.83;99804.75;5091125;28;20044;-67
2023/06/10 08:50:14;;;;;;;5.23;4.20;;;;;;;22.90;71.00;99805.59;5093292;28;20127;-67
2023/06/10 08:52:45;;;;;;;6.20;4.40;;;;;;;22.92;71.04;99802.69;5095376;28;20301;-67
2023/06/10 08:55:17;;;;;;;6.82;4.50;;;;;;;22.93;70.72;99798.94;5095257;28;20052;-67
2023/06/10 08:57:47;;;;;;;6.72;4.40;;;;;;;22.94;70.81;99798.75;5095209;28;20134;-67
2023/06/10 09:00:17;;;;;;;9.05;5.32;;;;;;;22.95;71.08;99799.59;5095235;28;20048;-67
2023/06/10 09:02:45;;;;;;;8.27;5.53;;;;;;;22.96;70.96;99798.56;5095402;28;20048;-67
2023/06/10 09:05:14;;;;;;;8.90;5.25;;;;;;;22.97;70.93;99795.69;5095104;28;20040;-67
2023/06/10 09:07:43;;;;;;;9.20;5.55;;;;;;;22.99;70.88;99792.78;5094751;28;20048;-67
2023/06/10 09:10:12;;;;;;;7.78;5.93;;;;;;;22.99;70.92;99787.34;5094983;28;20489;-67
2023/06/10 09:12:40;;;;;;;9.13;5.70;;;;;;;23.01;70.92;99779.84;5094609;28;20055;-66
2023/06/10 09:15:12;;;;;;;10.05;5.72;;;;;;;23.02;70.96;99776.94;5094803;28;20052;-66
2023/06/10 09:17:40;;;;;;;9.20;6.05;;;;;;;23.04;70.92;99779.47;5095038;28;20044;-67
2023/06/10 09:20:09;;;;;;;10.15;6.30;;;;;;;23.07;71.08;99781.84;5094948;28;20048;-67
2023/06/10 09:22:38;;;;;;;11.77;5.82;;;;;;;23.07;71.00;99776.41;5094739;28;20403;-67
2023/06/10 09:25:09;;;;;;;10.10;6.32;;;;;;;23.08;71.10;99778.94;5094906;28;20105;-67
2023/06/10 09:27:48;;;;;;;9.52;5.95;;;;;;;23.10;71.04;99774.13;5094492;28;20048;-67
2023/06/10 09:30:28;;;;;;;10.98;6.72;;;;;;;23.10;71.04;99776.00;5094422;28;20404;-66
2023/06/10 09:32:58;;;;;;;11.57;6.60;;;;;;;23.12;71.08;99782.94;5094555;28;20052;-67
2023/06/10 09:35:28;;;;;;;11.05;7.05;;;;;;;23.14;71.29;99785.47;5094255;28;20515;-67
2023/06/10 09:37:58;;;;;;;11.63;6.90;;;;;;;23.14;71.29;99782.75;5094274;28;20136;-66
2023/06/10 09:40:27;;;;;;;10.85;7.20;;;;;;;23.16;71.38;99777.97;5094338;28;20052;-67
2023/06/10 09:42:57;;;;;;;14.55;8.27;;;;;;;23.17;71.16;99785.13;5094526;28;20051;-66
2023/06/10 09:45:31;;;;;;;11.10;8.20;;;;;;;23.16;71.17;99788.84;5094311;28;20052;-66
2023/06/10 09:48:00;;;;;;;13.68;9.25;;;;;;;23.14;71.21;99780.88;5094155;28;20493;-67
2023/06/10 09:50:28;;;;;;;11.80;8.30;;;;;;;23.16;71.12;99791.56;5094007;28;20051;-67
2023/06/10 09:52:57;;;;;;;12.23;8.57;;;;;;;23.18;70.95;99785.97;5094271;28;20044;-67
2023/06/10 09:55:25;;;;;;;11.43;8.05;;;;;;;23.15;70.96;99784.44;5094041;28;20044;-67
2023/06/10 09:57:54;;;;;;;10.85;8.05;;;;;;;23.17;70.88;99776.97;5094174;28;20052;-66
2023/06/10 10:00:25;;;;;;;9.85;7.80;;;;;;;23.17;70.76;99779.69;5094053;28;20127;-66
2023/06/10 10:02:55;;;;;;;12.25;8.20;;;;;;;23.18;70.82;99786.81;5092944;28;20105;-67
2023/06/10 10:05:24;;;;;;;11.02;8.00;;;;;;;23.19;70.80;99783.06;5094108;28;20413;-66
2023/06/10 10:07:52;;;;;;;10.68;8.38;;;;;;;23.20;70.93;99779.31;5093420;28;20056;-64
2023/06/10 10:10:22;;;;;;;11.25;8.98;;;;;;;23.24;70.73;99774.34;5093898;28;20055;-63
2023/06/10 10:12:57;;;;;;;11.68;8.80;;;;;;;23.28;70.66;99778.41;5093709;28;20358;-63
2023/06/10 10:15:29;;;;;;;11.73;8.63;;;;;;;23.30;70.64;99777.16;5093649;28;20048;-64
2023/06/10 10:18:06;;;;;;;14.27;8.90;;;;;;;23.31;70.89;99775.28;5093650;28;20048;-64
2023/06/10 10:20:38;;;;;;;11.65;9.15;;;;;;;23.32;71.24;99776.97;5093866;28;20055;-64
2023/06/10 10:23:09;;;;;;;13.20;8.93;;;;;;;23.33;71.02;99774.06;5093316;28;20561;-64
2023/06/10 10:25:41;;;;;;;14.05;10.07;;;;;;;23.35;71.24;99766.56;5093545;28;20048;-64
2023/06/10 10:28:11;;;;;;;14.50;10.70;;;;;;;23.37;71.20;99763.69;5093371;28;20052;-64
2023/06/10 10:30:43;;;;;;;12.23;9.23;;;;;;;23.38;71.05;99766.22;5093432;28;20097;-63
2023/06/10 10:33:19;;;;;;;11.30;9.90;;;;;;;23.39;70.86;99767.88;5093430;28;20076;-64
2023/06/10 10:35:48;;;;;;;13.65;9.82;;;;;;;23.41;70.87;99760.38;5093517;28;20048;-64
2023/06/10 10:38:16;;;;;;;13.15;10.65;;;;;;;23.42;70.71;99762.06;5093207;28;20123;-64
2023/06/10 10:40:46;;;;;;;13.07;10.40;;;;;;;23.45;70.67;99762.72;5092958;28;20047;-63
2023/06/10 10:43:16;;;;;;;12.05;10.55;;;;;;;23.47;70.56;99757.97;5093282;28;20048;-64
2023/06/10 10:45:47;;;;;;;11.40;10.05;;;;;;;23.48;70.47;99754.19;5092044;28;20139;-63
2023/06/10 10:48:16;;;;;;;11.82;10.32;;;;;;;23.48;70.50;99749.59;5093180;28;20117;-64
2023/06/10 10:50:56;;;;;;;11.50;10.00;;;;;;;23.51;70.61;99748.38;5093036;28;20044;-64
2023/06/10 10:53:25;;;;;;;12.32;10.27;;;;;;;23.52;70.40;99750.06;5092479;28;20138;-64
2023/06/10 10:56:00;;;;;;;11.43;10.20;;;;;;;23.54;70.34;99747.97;5092837;28;20048;-64
2023/06/10 10:58:28;;;;;;;11.30;9.75;;;;;;;23.57;70.48;99750.34;5092760;28;20044;-64
2023/06/10 11:00:56;;;;;;;12.23;10.30;;;;;;;23.60;70.21;99744.56;5092994;28;20052;-64
2023/06/10 11:03:30;;;;;;;12.13;10.32;;;;;;;23.60;70.34;99737.22;5092946;28;20485;-64
2023/06/10 11:05:59;;;;;;;12.93;10.60;;;;;;;23.62;70.50;99731.59;5092692;28;20134;-64
2023/06/10 11:08:49;;;;;;;12.85;10.63;;;;;;;23.65;70.59;99731.22;5092545;28;20560;-64
2023/06/10 11:11:22;;;;;;;12.18;10.88;;;;;;;23.67;70.32;99727.28;5093141;28;20040;-64
2023/06/10 11:14:06;;;;;;;12.05;10.75;;;;;;;23.70;70.09;99713.28;5092410;28;20055;-63
2023/06/10 11:16:40;;;;;;;11.65;10.45;;;;;;;23.72;70.24;99718.53;5092321;28;20481;-63
2023/06/10 11:19:10;;;;;;;12.18;10.85;;;;;;;23.74;70.07;99711.03;5092999;28;20147;-64
2023/06/10 11:21:59;;;;;;;11.73;10.48;;;;;;;23.76;69.83;99724.47;5092789;28;20048;-64
2023/06/10 11:24:27;;;;;;;13.88;11.23;;;;;;;23.76;69.95;99714.41;5092377;28;20510;-64
2023/06/10 11:26:56;;;;;;;12.55;11.18;;;;;;;23.79;69.92;99724.91;5092305;28;20040;-63
2023/06/10 11:29:24;;;;;;;13.02;11.48;;;;;;;23.80;69.71;99728.47;5092471;28;20048;-63
2023/06/10 11:31:52;;;;;;;12.20;10.95;;;;;;;23.81;69.81;99722.84;5092145;28;20080;-63
2023/06/10 11:34:26;;;;;;;12.73;11.38;;;;;;;23.82;69.70;99721.78;5092425;28;20047;-63
2023/06/10 11:36:55;;;;;;;12.73;11.40;;;;;;;23.83;69.67;99714.47;5092000;28;20056;-63
2023/06/10 11:39:26;;;;;;;12.82;11.43;;;;;;;23.83;69.61;99715.31;5092000;28;20079;-64
2023/06/10 11:41:55;;;;;;;13.23;11.13;;;;;;;23.83;69.68;99712.59;5092036;28;20040;-63